sensor_id;sensor_type;location;lat;lon;timestamp;pressure;altitude;pressure_sealevel;temperature;humidity
13235;BME280;6683;48.506;9.050;2023-07-24T00:01:52;97403.91;;;21.52;45.73
13235;BME280;6683;48.506;9.050;2023-07-24T00:04:55;97399.34;;;21.47;45.78
13235;BME280;6683;48.506;9.050;2023-07-24T00:07:57;97392.91;;;21.43;45.90
13235;BME280;6683;48.506;9.050;2023-07-24T00:11:00;97397.22;;;21.39;45.79
13235;BME280;6683;48.506;9.050;2023-07-24T00:14:04;97395.38;;;21.35;45.70
13235;BME280;6683;48.506;9.050;2023-07-24T00:17:06;97389.75;;;21.31;45.95
13235;BME280;6683;48.506;9.050;2023-07-24T00:20:11;97386.25;;;21.26;46.31
13235;BME280;6683;48.506;9.050;2023-07-24T00:23:13;97398.38;;;21.23;46.19
13235;BME280;6683;48.506;9.050;2023-07-24T00:26:16;97392.47;;;21.21;46.25
13235;BME280;6683;48.506;9.050;2023-07-24T00:29:18;97408.59;;;21.16;46.37
13235;BME280;6683;48.506;9.050;2023-07-24T00:32:20;97401.06;;;21.13;46.44
13235;BME280;6683;48.506;9.050;2023-07-24T00:35:23;97397.84;;;21.11;46.85
13235;BME280;6683;48.506;9.050;2023-07-24T00:38:25;97402.44;;;21.11;46.89
13235;BME280;6683;48.506;9.050;2023-07-24T00:41:27;97403.22;;;21.11;46.99
13235;BME280;6683;48.506;9.050;2023-07-24T00:44:30;97394.09;;;21.12;46.89
13235;BME280;6683;48.506;9.050;2023-07-24T00:47:32;97393.00;;;21.13;46.78
13235;BME280;6683;48.506;9.050;2023-07-24T00:50:36;97379.06;;;21.16;47.12
13235;BME280;6683;48.506;9.050;2023-07-24T00:53:39;97377.97;;;21.17;46.89
13235;BME280;6683;48.506;9.050;2023-07-24T00:56:41;97386.03;;;21.17;46.93
13235;BME280;6683;48.506;9.050;2023-07-24T00:59:45;97366.44;;;21.17;46.85
13235;BME280;6683;48.506;9.050;2023-07-24T01:02:47;97377.19;;;21.17;46.93
13235;BME280;6683;48.506;9.050;2023-07-24T01:05:51;97359.47;;;21.16;47.13
13235;BME280;6683;48.506;9.050;2023-07-24T01:08:53;97360.28;;;21.16;47.12
13235;BME280;6683;48.506;9.050;2023-07-24T01:12:00;97362.16;;;21.16;47.19
13235;BME280;6683;48.506;9.050;2023-07-24T01:15:09;97343.66;;;21.14;47.03
13235;BME280;6683;48.506;9.050;2023-07-24T01:18:17;97345.22;;;21.15;47.37
13235;BME280;6683;48.506;9.050;2023-07-24T01:21:32;97362.44;;;21.14;47.19
13235;BME280;6683;48.506;9.050;2023-07-24T01:24:52;97357.06;;;21.14;47.29
13235;BME280;6683;48.506;9.050;2023-07-24T01:28:01;97360.56;;;21.15;47.15
13235;BME280;6683;48.506;9.050;2023-07-24T01:31:03;97359.19;;;21.17;47.32
13235;BME280;6683;48.506;9.050;2023-07-24T01:34:05;97355.72;;;21.17;47.29
13235;BME280;6683;48.506;9.050;2023-07-24T01:37:08;97357.59;;;21.16;47.39
13235;BME280;6683;48.506;9.050;2023-07-24T01:40:12;97369.38;;;21.15;47.27
13235;BME280;6683;48.506;9.050;2023-07-24T01:43:16;97354.09;;;21.16;47.43
13235;BME280;6683;48.506;9.050;2023-07-24T01:46:18;97360.28;;;21.16;47.24
13235;BME280;6683;48.506;9.050;2023-07-24T01:49:20;97356.78;;;21.16;47.58
13235;BME280;6683;48.506;9.050;2023-07-24T01:52:22;97350.34;;;21.12;47.44
13235;BME280;6683;48.506;9.050;2023-07-24T01:55:24;97354.38;;;21.09;47.78
13235;BME280;6683;48.506;9.050;2023-07-24T01:58:28;97345.84;;;21.02;47.61
13235;BME280;6683;48.506;9.050;2023-07-24T02:01:30;97332.41;;;20.97;47.73
13235;BME280;6683;48.506;9.050;2023-07-24T02:04:32;97321.94;;;20.91;47.87
13235;BME280;6683;48.506;9.050;2023-07-24T02:07:35;97331.66;;;20.82;48.07
13235;BME280;6683;48.506;9.050;2023-07-24T02:10:37;97330.88;;;20.71;48.38
13235;BME280;6683;48.506;9.050;2023-07-24T02:13:44;97305.41;;;20.63;48.62
13235;BME280;6683;48.506;9.050;2023-07-24T02:16:46;97301.13;;;20.57;48.48
13235;BME280;6683;48.506;9.050;2023-07-24T02:19:49;97300.63;;;20.50;48.71
13235;BME280;6683;48.506;9.050;2023-07-24T02:22:51;97293.63;;;20.44;48.78
13235;BME280;6683;48.506;9.050;2023-07-24T02:25:53;97293.94;;;20.38;48.80
13235;BME280;6683;48.506;9.050;2023-07-24T02:28:56;97282.69;;;20.31;49.02
13235;BME280;6683;48.506;9.050;2023-07-24T02:32:00;97282.41;;;20.22;49.09
13235;BME280;6683;48.506;9.050;2023-07-24T02:35:03;97299.81;;;20.15;49.31
13235;BME280;6683;48.506;9.050;2023-07-24T02:38:05;97293.66;;;20.04;49.54
13235;BME280;6683;48.506;9.050;2023-07-24T02:41:08;97295.25;;;19.95;49.70
13235;BME280;6683;48.506;9.050;2023-07-24T02:44:12;97288.28;;;19.89;49.79
13235;BME280;6683;48.506;9.050;2023-07-24T02:47:14;97288.03;;;19.85;49.86
13235;BME280;6683;48.506;9.050;2023-07-24T02:50:16;97283.47;;;19.81;50.07
13235;BME280;6683;48.506;9.050;2023-07-24T02:53:18;97269.81;;;19.77;50.06
13235;BME280;6683;48.506;9.050;2023-07-24T02:56:21;97281.34;;;19.73;50.24
13235;BME280;6683;48.506;9.050;2023-07-24T02:59:25;97271.41;;;19.68;50.31
13235;BME280;6683;48.506;9.050;2023-07-24T03:02:27;97271.69;;;19.62;50.55
13235;BME280;6683;48.506;9.050;2023-07-24T03:05:30;97267.66;;;19.54;50.54
13235;BME280;6683;48.506;9.050;2023-07-24T03:08:32;97272.19;;;19.49;50.67
13235;BME280;6683;48.506;9.050;2023-07-24T03:11:34;97270.84;;;19.41;50.88
13235;BME280;6683;48.506;9.050;2023-07-24T03:14:37;97275.88;;;19.33;51.04
13235;BME280;6683;48.506;9.050;2023-07-24T03:17:40;97272.63;;;19.26;51.02
13235;BME280;6683;48.506;9.050;2023-07-24T03:20:42;97283.84;;;19.17;51.14
13235;BME280;6683;48.506;9.050;2023-07-24T03:23:44;97294.78;;;19.11;51.30
13235;BME280;6683;48.506;9.050;2023-07-24T03:26:46;97290.50;;;19.05;51.40
13235;BME280;6683;48.506;9.050;2023-07-24T03:29:50;97276.03;;;18.96;51.57
13235;BME280;6683;48.506;9.050;2023-07-24T03:32:52;97270.13;;;18.89;51.69
13235;BME280;6683;48.506;9.050;2023-07-24T03:35:55;97283.44;;;18.84;51.84
13235;BME280;6683;48.506;9.050;2023-07-24T03:38:57;97279.16;;;18.78;51.92
13235;BME280;6683;48.506;9.050;2023-07-24T03:41:59;97277.00;;;18.75;52.03
13235;BME280;6683;48.506;9.050;2023-07-24T03:45:05;97273.78;;;18.73;52.22
13235;BME280;6683;48.506;9.050;2023-07-24T03:48:07;97260.44;;;18.73;52.14
13235;BME280;6683;48.506;9.050;2023-07-24T03:51:09;97259.91;;;18.76;52.51
13235;BME280;6683;48.506;9.050;2023-07-24T03:54:11;97262.31;;;18.77;52.68
13235;BME280;6683;48.506;9.050;2023-07-24T03:57:13;97262.59;;;18.81;52.76
13235;BME280;6683;48.506;9.050;2023-07-24T04:00:17;97265.28;;;18.81;52.88
13235;BME280;6683;48.506;9.050;2023-07-24T04:03:20;97263.16;;;18.83;53.03
13235;BME280;6683;48.506;9.050;2023-07-24T04:06:22;97253.25;;;18.83;52.98
13235;BME280;6683;48.506;9.050;2023-07-24T04:09:25;97261.81;;;18.85;52.98
13235;BME280;6683;48.506;9.050;2023-07-24T04:12:29;97256.75;;;18.89;52.92
13235;BME280;6683;48.506;9.050;2023-07-24T04:15:33;97240.72;;;18.94;53.11
13235;BME280;6683;48.506;9.050;2023-07-24T04:18:35;97245.25;;;18.98;53.03
13235;BME280;6683;48.506;9.050;2023-07-24T04:21:37;97242.34;;;19.00;52.92
13235;BME280;6683;48.506;9.050;2023-07-24T04:24:39;97238.31;;;19.02;52.96
13235;BME280;6683;48.506;9.050;2023-07-24T04:27:42;97215.06;;;19.03;53.12
13235;BME280;6683;48.506;9.050;2023-07-24T04:30:45;97219.38;;;19.04;52.99
13235;BME280;6683;48.506;9.050;2023-07-24T04:33:48;97216.94;;;19.07;53.00
13235;BME280;6683;48.506;9.050;2023-07-24T04:36:50;97223.66;;;19.10;53.08
13235;BME280;6683;48.506;9.050;2023-07-24T04:39:52;97220.44;;;19.13;53.15
13235;BME280;6683;48.506;9.050;2023-07-24T04:43:20;97224.19;;;19.17;53.05
13235;BME280;6683;48.506;9.050;2023-07-24T04:46:24;97230.09;;;19.19;53.12
13235;BME280;6683;48.506;9.050;2023-07-24T04:49:26;97232.78;;;19.19;53.14
13235;BME280;6683;48.506;9.050;2023-07-24T04:52:30;97230.66;;;19.21;53.31
13235;BME280;6683;48.506;9.050;2023-07-24T04:55:32;97234.41;;;19.25;53.36
13235;BME280;6683;48.506;9.050;2023-07-24T04:58:34;97241.59;;;19.30;53.30
13235;BME280;6683;48.506;9.050;2023-07-24T05:01:38;97239.78;;;19.35;53.49
13235;BME280;6683;48.506;9.050;2023-07-24T05:04:40;97243.53;;;19.44;53.62
13235;BME280;6683;48.506;9.050;2023-07-24T05:07:43;97244.38;;;19.50;53.58
13235;BME280;6683;48.506;9.050;2023-07-24T05:10:45;97244.09;;;19.56;53.53
13235;BME280;6683;48.506;9.050;2023-07-24T05:13:48;97245.44;;;19.64;53.81
13235;BME280;6683;48.506;9.050;2023-07-24T05:16:51;97247.84;;;19.70;53.69
13235;BME280;6683;48.506;9.050;2023-07-24T05:19:54;97250.28;;;19.77;53.67
13235;BME280;6683;48.506;9.050;2023-07-24T05:22:56;97254.28;;;19.84;53.75
13235;BME280;6683;48.506;9.050;2023-07-24T05:25:59;97276.78;;;19.93;53.72
13235;BME280;6683;48.506;9.050;2023-07-24T05:29:01;97288.81;;;20.01;53.69
13235;BME280;6683;48.506;9.050;2023-07-24T05:32:06;97297.13;;;20.10;53.79
13235;BME280;6683;48.506;9.050;2023-07-24T05:35:08;97289.34;;;20.18;53.71
13235;BME280;6683;48.506;9.050;2023-07-24T05:38:10;97284.81;;;20.29;53.57
13235;BME280;6683;48.506;9.050;2023-07-24T05:41:13;97295.00;;;20.37;53.36
13235;BME280;6683;48.506;9.050;2023-07-24T05:44:15;97297.69;;;20.42;53.33
13235;BME280;6683;48.506;9.050;2023-07-24T05:47:18;97304.63;;;20.48;53.34
13235;BME280;6683;48.506;9.050;2023-07-24T05:50:20;97311.88;;;20.52;53.24
13235;BME280;6683;48.506;9.050;2023-07-24T05:53:23;97321.50;;;20.58;53.27
13235;BME280;6683;48.506;9.050;2023-07-24T05:56:25;97330.34;;;20.64;53.15
13235;BME280;6683;48.506;9.050;2023-07-24T05:59:27;97312.91;;;20.66;53.12
13235;BME280;6683;48.506;9.050;2023-07-24T06:02:31;97305.13;;;20.70;53.24
13235;BME280;6683;48.506;9.050;2023-07-24T06:05:33;97297.06;;;20.75;52.92
13235;BME280;6683;48.506;9.050;2023-07-24T06:08:35;97305.06;;;20.80;52.96
13235;BME280;6683;48.506;9.050;2023-07-24T06:11:38;97279.88;;;20.81;53.03
13235;BME280;6683;48.506;9.050;2023-07-24T06:14:40;97263.50;;;20.83;52.72
13235;BME280;6683;48.506;9.050;2023-07-24T06:17:44;97264.84;;;20.85;52.79
13235;BME280;6683;48.506;9.050;2023-07-24T06:20:47;97259.47;;;20.90;52.68
13235;BME280;6683;48.506;9.050;2023-07-24T06:23:50;97244.44;;;20.94;52.76
13235;BME280;6683;48.506;9.050;2023-07-24T06:26:53;97234.75;;;20.98;52.40
13235;BME280;6683;48.506;9.050;2023-07-24T06:29:55;97231.00;;;21.04;52.55
13235;BME280;6683;48.506;9.050;2023-07-24T06:32:58;97241.44;;;21.11;52.66
13235;BME280;6683;48.506;9.050;2023-07-24T06:36:01;97241.09;;;21.17;52.37
13235;BME280;6683;48.506;9.050;2023-07-24T06:39:03;97223.09;;;21.23;52.35
13235;BME280;6683;48.506;9.050;2023-07-24T06:42:06;97225.72;;;21.28;52.25
13235;BME280;6683;48.506;9.050;2023-07-24T06:45:08;97217.13;;;21.36;52.00
13235;BME280;6683;48.506;9.050;2023-07-24T06:48:11;97219.47;;;21.42;52.05
13235;BME280;6683;48.506;9.050;2023-07-24T06:51:13;97223.16;;;21.52;51.86
13235;BME280;6683;48.506;9.050;2023-07-24T06:54:16;97251.56;;;21.63;51.95
13235;BME280;6683;48.506;9.050;2023-07-24T06:57:18;97260.06;;;21.75;51.60
13235;BME280;6683;48.506;9.050;2023-07-24T07:00:20;97249.50;;;21.88;51.49
13235;BME280;6683;48.506;9.050;2023-07-24T07:03:24;97258.78;;;22.01;51.30
13235;BME280;6683;48.506;9.050;2023-07-24T07:06:27;97258.16;;;22.14;51.41
13235;BME280;6683;48.506;9.050;2023-07-24T07:09:29;97277.38;;;22.26;51.09
13235;BME280;6683;48.506;9.050;2023-07-24T07:12:31;97276.22;;;22.37;51.40
13235;BME280;6683;48.506;9.050;2023-07-24T07:15:33;97271.25;;;22.49;51.32
13235;BME280;6683;48.506;9.050;2023-07-24T07:18:38;97278.38;;;22.64;51.22
13235;BME280;6683;48.506;9.050;2023-07-24T07:21:40;97272.00;;;22.83;50.70
13235;BME280;6683;48.506;9.050;2023-07-24T07:24:43;97267.72;;;23.01;50.68
13235;BME280;6683;48.506;9.050;2023-07-24T07:27:47;97268.56;;;23.20;50.52
13235;BME280;6683;48.506;9.050;2023-07-24T07:30:49;97271.09;;;23.35;50.09
13235;BME280;6683;48.506;9.050;2023-07-24T07:33:52;97277.34;;;23.49;49.95
13235;BME280;6683;48.506;9.050;2023-07-24T07:36:54;97276.41;;;23.59;49.86
13235;BME280;6683;48.506;9.050;2023-07-24T07:39:57;97269.75;;;23.70;49.68
13235;BME280;6683;48.506;9.050;2023-07-24T07:42:59;97278.59;;;23.75;49.70
13235;BME280;6683;48.506;9.050;2023-07-24T07:46:01;97285.00;;;23.79;49.32
13235;BME280;6683;48.506;9.050;2023-07-24T07:49:04;97298.38;;;23.84;49.43
13235;BME280;6683;48.506;9.050;2023-07-24T07:52:07;97299.38;;;23.89;49.62
13235;BME280;6683;48.506;9.050;2023-07-24T07:55:09;97304.72;;;23.94;49.37
13235;BME280;6683;48.506;9.050;2023-07-24T07:58:12;97327.59;;;23.96;49.60
13235;BME280;6683;48.506;9.050;2023-07-24T08:01:14;97326.22;;;23.99;49.61
13235;BME280;6683;48.506;9.050;2023-07-24T08:04:17;97307.84;;;24.01;49.70
13235;BME280;6683;48.506;9.050;2023-07-24T08:07:20;97328.31;;;24.02;49.69
13235;BME280;6683;48.506;9.050;2023-07-24T08:10:22;97303.22;;;24.01;49.87
13235;BME280;6683;48.506;9.050;2023-07-24T08:13:24;97306.22;;;24.00;49.88
13235;BME280;6683;48.506;9.050;2023-07-24T08:16:26;97303.22;;;24.01;50.03
13235;BME280;6683;48.506;9.050;2023-07-24T08:19:30;97300.50;;;24.06;50.22
13235;BME280;6683;48.506;9.050;2023-07-24T08:22:32;97288.22;;;24.14;50.19
13235;BME280;6683;48.506;9.050;2023-07-24T08:25:34;97283.78;;;24.23;50.29
13235;BME280;6683;48.506;9.050;2023-07-24T08:28:36;97267.72;;;24.31;50.16
13235;BME280;6683;48.506;9.050;2023-07-24T08:31:42;97248.66;;;24.41;50.15
13235;BME280;6683;48.506;9.050;2023-07-24T08:34:46;97246.56;;;24.52;50.34
13235;BME280;6683;48.506;9.050;2023-07-24T08:37:48;97235.06;;;24.60;50.02
13235;BME280;6683;48.506;9.050;2023-07-24T08:41:01;97241.69;;;24.68;50.07
13235;BME280;6683;48.506;9.050;2023-07-24T08:44:05;97222.63;;;24.78;50.22
13235;BME280;6683;48.506;9.050;2023-07-24T08:47:10;97216.50;;;24.86;50.28
13235;BME280;6683;48.506;9.050;2023-07-24T08:50:14;97206.13;;;24.93;50.33
13235;BME280;6683;48.506;9.050;2023-07-24T08:53:19;97203.78;;;25.00;50.52
13235;BME280;6683;48.506;9.050;2023-07-24T08:56:21;97211.97;;;25.08;50.89
13235;BME280;6683;48.506;9.050;2023-07-24T08:59:23;97208.88;;;25.15;50.98
13235;BME280;6683;48.506;9.050;2023-07-24T09:02:26;97212.47;;;25.24;50.65
13235;BME280;6683;48.506;9.050;2023-07-24T09:05:29;97217.91;;;25.32;50.47
13235;BME280;6683;48.506;9.050;2023-07-24T09:08:33;97220.44;;;25.43;50.23
13235;BME280;6683;48.506;9.050;2023-07-24T09:11:46;97209.22;;;25.49;50.46
13235;BME280;6683;48.506;9.050;2023-07-24T09:14:48;97208.47;;;25.57;50.06
13235;BME280;6683;48.506;9.050;2023-07-24T09:17:51;97200.22;;;25.62;49.84
13235;BME280;6683;48.506;9.050;2023-07-24T09:20:55;97193.59;;;25.68;49.73
13235;BME280;6683;48.506;9.050;2023-07-24T09:23:57;97184.88;;;25.71;49.90
13235;BME280;6683;48.506;9.050;2023-07-24T09:27:05;97172.94;;;25.72;50.00
13235;BME280;6683;48.506;9.050;2023-07-24T09:30:13;97156.13;;;25.75;49.83
13235;BME280;6683;48.506;9.050;2023-07-24T09:33:15;97162.94;;;25.73;50.33
13235;BME280;6683;48.506;9.050;2023-07-24T09:36:19;97162.78;;;25.69;50.55
13235;BME280;6683;48.506;9.050;2023-07-24T09:39:24;97169.59;;;25.67;50.60
13235;BME280;6683;48.506;9.050;2023-07-24T09:42:30;97170.22;;;25.64;50.89
13235;BME280;6683;48.506;9.050;2023-07-24T09:45:33;97184.31;;;25.61;51.07
13235;BME280;6683;48.506;9.050;2023-07-24T09:48:35;97199.06;;;25.55;50.85
13235;BME280;6683;48.506;9.050;2023-07-24T09:51:39;97222.41;;;25.51;51.59
13235;BME280;6683;48.506;9.050;2023-07-24T09:54:55;97230.94;;;25.44;51.58
13235;BME280;6683;48.506;9.050;2023-07-24T09:57:59;97237.53;;;25.38;51.89
13235;BME280;6683;48.506;9.050;2023-07-24T10:01:04;97229.84;;;25.31;52.44
13235;BME280;6683;48.506;9.050;2023-07-24T10:04:08;97245.06;;;25.27;52.59
13235;BME280;6683;48.506;9.050;2023-07-24T10:07:14;97242.28;;;25.19;53.07
13235;BME280;6683;48.506;9.050;2023-07-24T10:10:16;97256.50;;;25.11;53.48
13235;BME280;6683;48.506;9.050;2023-07-24T10:13:21;97276.88;;;25.03;54.08
13235;BME280;6683;48.506;9.050;2023-07-24T10:16:23;97304.31;;;24.97;53.96
13235;BME280;6683;48.506;9.050;2023-07-24T10:19:36;97291.28;;;24.85;54.19
13235;BME280;6683;48.506;9.050;2023-07-24T10:22:42;97289.59;;;24.76;54.58
13235;BME280;6683;48.506;9.050;2023-07-24T10:25:45;97312.44;;;24.65;54.44
13235;BME280;6683;48.506;9.050;2023-07-24T10:28:48;97324.22;;;24.55;55.05
13235;BME280;6683;48.506;9.050;2023-07-24T10:31:53;97333.09;;;24.42;55.16
13235;BME280;6683;48.506;9.050;2023-07-24T10:34:57;97346.44;;;24.33;55.12
13235;BME280;6683;48.506;9.050;2023-07-24T10:38:02;97348.69;;;24.26;55.25
13235;BME280;6683;48.506;9.050;2023-07-24T10:41:06;97351.00;;;24.19;55.55
13235;BME280;6683;48.506;9.050;2023-07-24T10:44:08;97342.66;;;24.16;55.96
13235;BME280;6683;48.506;9.050;2023-07-24T10:47:11;97351.66;;;24.11;56.06
13235;BME280;6683;48.506;9.050;2023-07-24T10:50:13;97347.16;;;24.07;55.76
13235;BME280;6683;48.506;9.050;2023-07-24T10:53:20;97369.84;;;24.01;56.08
13235;BME280;6683;48.506;9.050;2023-07-24T10:56:23;97378.50;;;23.98;56.48
13235;BME280;6683;48.506;9.050;2023-07-24T10:59:36;97357.56;;;23.95;56.59
13235;BME280;6683;48.506;9.050;2023-07-24T11:02:39;97352.44;;;23.93;56.62
13235;BME280;6683;48.506;9.050;2023-07-24T11:05:42;97369.47;;;23.89;56.48
13235;BME280;6683;48.506;9.050;2023-07-24T11:08:53;97362.03;;;23.80;56.41
13235;BME280;6683;48.506;9.050;2023-07-24T11:11:57;97368.59;;;23.74;56.62
13235;BME280;6683;48.506;9.050;2023-07-24T11:14:59;97363.00;;;23.71;56.78
13235;BME280;6683;48.506;9.050;2023-07-24T11:18:01;97342.81;;;23.68;56.79
13235;BME280;6683;48.506;9.050;2023-07-24T11:21:03;97301.09;;;23.66;56.95
13235;BME280;6683;48.506;9.050;2023-07-24T11:24:08;97260.66;;;23.66;57.46
13235;BME280;6683;48.506;9.050;2023-07-24T11:27:13;97210.47;;;23.70;57.21
13235;BME280;6683;48.506;9.050;2023-07-24T11:30:20;97181.84;;;23.74;57.21
13235;BME280;6683;48.506;9.050;2023-07-24T11:33:22;97149.97;;;23.95;57.68
13235;BME280;6683;48.506;9.050;2023-07-24T11:36:27;97164.22;;;24.27;57.49
13235;BME280;6683;48.506;9.050;2023-07-24T11:39:30;97157.72;;;24.55;57.36
13235;BME280;6683;48.506;9.050;2023-07-24T11:42:33;97162.81;;;24.71;57.05
13235;BME280;6683;48.506;9.050;2023-07-24T11:45:42;97170.34;;;24.74;57.11
13235;BME280;6683;48.506;9.050;2023-07-24T11:48:44;97166.63;;;24.83;57.32
13235;BME280;6683;48.506;9.050;2023-07-24T11:51:46;97175.69;;;25.01;57.31
13235;BME280;6683;48.506;9.050;2023-07-24T11:54:57;97177.44;;;25.19;57.15
13235;BME280;6683;48.506;9.050;2023-07-24T11:58:02;97185.59;;;25.41;56.99
13235;BME280;6683;48.506;9.050;2023-07-24T12:01:04;97189.25;;;25.59;56.44
13235;BME280;6683;48.506;9.050;2023-07-24T12:04:06;97209.38;;;25.75;56.34
13235;BME280;6683;48.506;9.050;2023-07-24T12:07:09;97212.03;;;25.88;56.29
13235;BME280;6683;48.506;9.050;2023-07-24T12:10:24;97216.38;;;25.98;55.80
13235;BME280;6683;48.506;9.050;2023-07-24T12:13:27;97224.47;;;26.11;55.36
13235;BME280;6683;48.506;9.050;2023-07-24T12:16:30;97219.59;;;26.22;54.80
13235;BME280;6683;48.506;9.050;2023-07-24T12:19:32;97210.41;;;26.32;54.48
13235;BME280;6683;48.506;9.050;2023-07-24T12:22:37;97208.72;;;26.44;53.77
13235;BME280;6683;48.506;9.050;2023-07-24T12:25:41;97205.88;;;26.58;53.46
13235;BME280;6683;48.506;9.050;2023-07-24T12:28:43;97207.22;;;26.69;52.70
13235;BME280;6683;48.506;9.050;2023-07-24T12:31:45;97197.84;;;26.75;51.94
13235;BME280;6683;48.506;9.050;2023-07-24T12:34:48;97194.38;;;26.83;51.93
13235;BME280;6683;48.506;9.050;2023-07-24T12:37:50;97183.41;;;26.97;51.96
13235;BME280;6683;48.506;9.050;2023-07-24T12:40:54;97174.84;;;27.12;51.28
13235;BME280;6683;48.506;9.050;2023-07-24T12:43:56;97178.03;;;27.22;51.08
13235;BME280;6683;48.506;9.050;2023-07-24T12:46:58;97170.22;;;27.29;50.41
13235;BME280;6683;48.506;9.050;2023-07-24T12:50:00;97153.34;;;27.32;49.86
13235;BME280;6683;48.506;9.050;2023-07-24T12:53:03;97135.34;;;27.36;49.73
13235;BME280;6683;48.506;9.050;2023-07-24T12:56:07;97130.06;;;27.40;49.45
13235;BME280;6683;48.506;9.050;2023-07-24T12:59:09;97125.94;;;27.51;49.72
13235;BME280;6683;48.506;9.050;2023-07-24T13:02:12;97139.28;;;27.64;48.98
13235;BME280;6683;48.506;9.050;2023-07-24T13:05:14;97141.81;;;27.78;49.07
13235;BME280;6683;48.506;9.050;2023-07-24T13:08:17;97139.72;;;27.84;48.57
13235;BME280;6683;48.506;9.050;2023-07-24T13:11:24;97145.00;;;27.89;48.22
13235;BME280;6683;48.506;9.050;2023-07-24T13:14:26;97161.56;;;27.96;48.32
13235;BME280;6683;48.506;9.050;2023-07-24T13:17:28;97163.34;;;28.00;47.56
13235;BME280;6683;48.506;9.050;2023-07-24T13:20:30;97146.75;;;27.93;46.85
13235;BME280;6683;48.506;9.050;2023-07-24T13:23:33;97157.63;;;27.85;46.81
13235;BME280;6683;48.506;9.050;2023-07-24T13:26:36;97143.91;;;27.73;46.59
13235;BME280;6683;48.506;9.050;2023-07-24T13:29:38;97134.81;;;27.60;47.60
13235;BME280;6683;48.506;9.050;2023-07-24T13:32:41;97139.31;;;27.47;48.11
13235;BME280;6683;48.506;9.050;2023-07-24T13:35:43;97126.88;;;27.38;48.19
13235;BME280;6683;48.506;9.050;2023-07-24T13:38:45;97138.97;;;27.23;48.15
13235;BME280;6683;48.506;9.050;2023-07-24T13:41:50;97125.13;;;27.08;48.44
13235;BME280;6683;48.506;9.050;2023-07-24T13:44:52;97111.72;;;26.94;48.72
13235;BME280;6683;48.506;9.050;2023-07-24T13:47:54;97104.72;;;26.84;48.97
13235;BME280;6683;48.506;9.050;2023-07-24T13:50:56;97096.25;;;26.77;49.39
13235;BME280;6683;48.506;9.050;2023-07-24T13:53:59;97085.25;;;26.74;49.41
13235;BME280;6683;48.506;9.050;2023-07-24T13:57:03;97081.25;;;26.71;49.68
13235;BME280;6683;48.506;9.050;2023-07-24T14:00:07;97074.41;;;26.65;49.38
13235;BME280;6683;48.506;9.050;2023-07-24T14:03:10;97079.94;;;26.60;49.49
13235;BME280;6683;48.506;9.050;2023-07-24T14:06:12;97095.53;;;26.55;49.21
13235;BME280;6683;48.506;9.050;2023-07-24T14:09:14;97117.66;;;26.48;49.46
13235;BME280;6683;48.506;9.050;2023-07-24T14:12:18;97106.31;;;26.38;49.72
13235;BME280;6683;48.506;9.050;2023-07-24T14:15:21;97107.22;;;26.25;49.50
13235;BME280;6683;48.506;9.050;2023-07-24T14:18:23;97104.81;;;26.14;49.57
13235;BME280;6683;48.506;9.050;2023-07-24T14:21:26;97098.25;;;26.07;49.69
13235;BME280;6683;48.506;9.050;2023-07-24T14:24:28;97097.72;;;25.96;49.46
13235;BME280;6683;48.506;9.050;2023-07-24T14:27:31;97115.94;;;25.82;49.55
13235;BME280;6683;48.506;9.050;2023-07-24T14:30:34;97127.00;;;25.72;49.74
13235;BME280;6683;48.506;9.050;2023-07-24T14:33:36;97112.34;;;25.65;49.99
13235;BME280;6683;48.506;9.050;2023-07-24T14:36:38;97127.41;;;25.57;49.91
13235;BME280;6683;48.506;9.050;2023-07-24T14:39:40;97095.72;;;25.49;50.05
13235;BME280;6683;48.506;9.050;2023-07-24T14:42:44;97077.72;;;25.45;50.13
13235;BME280;6683;48.506;9.050;2023-07-24T14:45:46;97087.25;;;25.42;50.42
13235;BME280;6683;48.506;9.050;2023-07-24T14:48:49;97079.63;;;25.44;50.30
13235;BME280;6683;48.506;9.050;2023-07-24T14:51:51;97088.81;;;25.43;50.49
13235;BME280;6683;48.506;9.050;2023-07-24T14:54:53;97088.13;;;25.37;50.42
13235;BME280;6683;48.506;9.050;2023-07-24T14:57:57;97093.78;;;25.27;50.42
13235;BME280;6683;48.506;9.050;2023-07-24T15:00:59;97100.72;;;25.20;50.75
13235;BME280;6683;48.506;9.050;2023-07-24T15:04:01;97106.25;;;25.15;50.88
13235;BME280;6683;48.506;9.050;2023-07-24T15:07:04;97100.16;;;25.09;51.00
13235;BME280;6683;48.506;9.050;2023-07-24T15:10:08;97065.47;;;25.03;51.02
13235;BME280;6683;48.506;9.050;2023-07-24T15:13:12;97083.75;;;25.06;51.16
13235;BME280;6683;48.506;9.050;2023-07-24T15:16:15;97083.66;;;25.11;51.13
13235;BME280;6683;48.506;9.050;2023-07-24T15:19:18;97093.22;;;25.17;51.18
13235;BME280;6683;48.506;9.050;2023-07-24T15:22:20;97089.91;;;25.20;51.10
13235;BME280;6683;48.506;9.050;2023-07-24T15:25:23;97099.28;;;25.22;51.01
13235;BME280;6683;48.506;9.050;2023-07-24T15:28:27;97090.59;;;25.25;51.02
13235;BME280;6683;48.506;9.050;2023-07-24T15:31:30;97075.03;;;25.31;50.81
13235;BME280;6683;48.506;9.050;2023-07-24T15:34:36;97080.22;;;25.41;50.90
13235;BME280;6683;48.506;9.050;2023-07-24T15:37:38;97082.69;;;25.51;50.78
13235;BME280;6683;48.506;9.050;2023-07-24T15:40:40;97096.53;;;25.58;50.83
13235;BME280;6683;48.506;9.050;2023-07-24T15:43:44;97092.13;;;25.62;50.47
13235;BME280;6683;48.506;9.050;2023-07-24T15:46:46;97091.50;;;25.65;50.50
13235;BME280;6683;48.506;9.050;2023-07-24T15:49:48;97103.91;;;25.66;50.30
13235;BME280;6683;48.506;9.050;2023-07-24T15:52:50;97100.09;;;25.67;50.09
13235;BME280;6683;48.506;9.050;2023-07-24T15:55:53;97089.78;;;25.69;49.76
13235;BME280;6683;48.506;9.050;2023-07-24T15:58:57;97078.16;;;25.69;49.88
13235;BME280;6683;48.506;9.050;2023-07-24T16:01:59;97083.75;;;25.72;49.60
13235;BME280;6683;48.506;9.050;2023-07-24T16:05:04;97070.09;;;25.77;49.67
13235;BME280;6683;48.506;9.050;2023-07-24T16:08:06;97068.53;;;25.85;49.72
13235;BME280;6683;48.506;9.050;2023-07-24T16:11:09;97077.81;;;25.92;49.46
13235;BME280;6683;48.506;9.050;2023-07-24T16:14:12;97081.66;;;26.00;49.75
13235;BME280;6683;48.506;9.050;2023-07-24T16:17:14;97080.31;;;26.11;49.47
13235;BME280;6683;48.506;9.050;2023-07-24T16:20:16;97084.00;;;26.24;49.21
13235;BME280;6683;48.506;9.050;2023-07-24T16:23:18;97079.09;;;26.34;49.39